Aérodrome :
LOGIN :

S'inscrire | Disclaimer

   EN    FR    IT 

 










Légende :    VFR   VFR Marginal   IFR   IFR Intensif   IFR Très Intensif
Visi : 
Plafond : 
>= 8 km
>= 3000ft
5 à 8 km
1000 à 3000 ft
1500m à 5 km
500 à 1000 ft
800 à 1500m
200 à 500 ft
< 800m
< 200 ft
Symboles :   Orages  Brouillard  Fortes neiges  Fortes précipitations  Vent > 20 kt
SIGMETs :   Divers  Orages  Givrage  Turbulence  Onde Orograph.  Cendres Volcan.






- Altitude de l'aérodrome : 425 ft
- Code IATA : DTM


EDLW - Dortmund

DERNIER METAR :
  • 091950Z 00000KT 8000 NSC M01/M02 Q1007

METARs EXPIRÉS :
  • 091920Z 00000KT 9000 FEW013 M00/M02 Q1006
  • 090450Z 20003KT CAVOK 01/00 Q1005
  • 091850Z VRB01KT 9999 OVC011 M00/M02 Q1006
  • 091820Z VRB02KT 9000 BKN010 00/M02 Q1006
  • 091750Z 05004KT 9000 OVC009 00/M02 Q1006
  • 091720Z 07004KT 9000 OVC009 00/M01 Q1006

TAF TAF EDLW
Valide du 09 à 18h jusqu'au 10 à 18h UTC


091700Z 0918/1018 VRB03KT 9000 FEW008 SCT015
TEMPO 0918/0922 BKN012
BECMG 0922/1001 4000 BR
TEMPO 1001/1009 1500 BCFG
PROB40
TEMPO 1001/1009 6000 BKN008
BECMG 1009/1013 7000 BKN010
TEMPO 1013/1018 BKN007



MET'MAP, la Météo Aéronautique d'un coup d'oeil ! - Copyright ORBIFLY Décembre 2007 - Disclaimer

ORBIFLY MET'MAP TEAM :

Programmation & Développement : Alexandra Zaïnal
Sur une idée originale de : Baudouin d'Aumeries
Soutien technique & logistique : Manuel Goepfert
Assistance : Marc-Olivier Méhu




SOURCES & CREDITS :

   NOAA